sensor_id;sensor_type;location;lat;lon;timestamp;P1;durP1;ratioP1;P2;durP2;ratioP2
51925;SDS011;37952;51.938;15.480;2023-07-13T00:01:27;1.10;;;0.70;;
51925;SDS011;37952;51.938;15.480;2023-07-13T00:04:31;2.70;;;0.70;;
51925;SDS011;37952;51.938;15.480;2023-07-13T00:07:35;0.70;;;0.70;;
51925;SDS011;37952;51.938;15.480;2023-07-13T00:10:39;0.50;;;0.50;;
51925;SDS011;37952;51.938;15.480;2023-07-13T00:13:43;1.30;;;0.80;;
51925;SDS011;37952;51.938;15.480;2023-07-13T00:16:46;0.70;;;0.70;;
51925;SDS011;37952;51.938;15.480;2023-07-13T00:19:50;1.00;;;0.90;;
51925;SDS011;37952;51.938;15.480;2023-07-13T00:22:54;0.80;;;0.80;;
51925;SDS011;37952;51.938;15.480;2023-07-13T00:25:57;1.10;;;0.90;;
51925;SDS011;37952;51.938;15.480;2023-07-13T00:29:00;1.80;;;0.60;;
51925;SDS011;37952;51.938;15.480;2023-07-13T00:32:03;1.50;;;0.90;;
51925;SDS011;37952;51.938;15.480;2023-07-13T00:35:07;0.90;;;0.80;;
51925;SDS011;37952;51.938;15.480;2023-07-13T00:38:11;2.90;;;0.70;;
51925;SDS011;37952;51.938;15.480;2023-07-13T00:41:14;4.40;;;0.70;;
51925;SDS011;37952;51.938;15.480;2023-07-13T00:44:18;1.00;;;0.90;;
51925;SDS011;37952;51.938;15.480;2023-07-13T00:47:22;0.70;;;0.70;;
51925;SDS011;37952;51.938;15.480;2023-07-13T00:50:25;0.70;;;0.70;;
51925;SDS011;37952;51.938;15.480;2023-07-13T00:53:29;4.90;;;0.80;;
51925;SDS011;37952;51.938;15.480;2023-07-13T00:56:35;0.80;;;0.80;;
51925;SDS011;37952;51.938;15.480;2023-07-13T00:59:42;0.90;;;0.90;;
51925;SDS011;37952;51.938;15.480;2023-07-13T01:02:48;1.70;;;1.20;;
51925;SDS011;37952;51.938;15.480;2023-07-13T01:05:52;1.20;;;1.10;;
51925;SDS011;37952;51.938;15.480;2023-07-13T01:08:56;1.10;;;1.00;;
51925;SDS011;37952;51.938;15.480;2023-07-13T01:12:01;0.80;;;0.80;;
51925;SDS011;37952;51.938;15.480;2023-07-13T01:15:05;2.30;;;0.90;;
51925;SDS011;37952;51.938;15.480;2023-07-13T01:18:29;2.90;;;0.90;;
51925;SDS011;37952;51.938;15.480;2023-07-13T01:21:32;1.20;;;0.90;;
51925;SDS011;37952;51.938;15.480;2023-07-13T01:24:35;1.30;;;1.00;;
51925;SDS011;37952;51.938;15.480;2023-07-13T01:27:39;1.20;;;1.10;;
51925;SDS011;37952;51.938;15.480;2023-07-13T01:30:44;4.00;;;1.20;;
51925;SDS011;37952;51.938;15.480;2023-07-13T01:33:48;1.20;;;1.20;;
51925;SDS011;37952;51.938;15.480;2023-07-13T01:36:51;1.30;;;1.20;;
51925;SDS011;37952;51.938;15.480;2023-07-13T01:39:56;2.60;;;1.40;;
51925;SDS011;37952;51.938;15.480;2023-07-13T01:42:59;2.80;;;1.40;;
51925;SDS011;37952;51.938;15.480;2023-07-13T01:46:02;1.30;;;1.20;;
51925;SDS011;37952;51.938;15.480;2023-07-13T01:49:24;4.40;;;1.50;;
51925;SDS011;37952;51.938;15.480;2023-07-13T01:52:26;2.50;;;1.50;;
51925;SDS011;37952;51.938;15.480;2023-07-13T01:55:29;1.80;;;1.40;;
51925;SDS011;37952;51.938;15.480;2023-07-13T01:58:33;1.10;;;1.00;;
51925;SDS011;37952;51.938;15.480;2023-07-13T02:01:36;1.30;;;1.20;;
51925;SDS011;37952;51.938;15.480;2023-07-13T02:04:39;3.10;;;1.40;;
51925;SDS011;37952;51.938;15.480;2023-07-13T02:07:43;1.20;;;1.10;;
51925;SDS011;37952;51.938;15.480;2023-07-13T02:10:46;1.30;;;1.30;;
51925;SDS011;37952;51.938;15.480;2023-07-13T02:13:49;1.40;;;1.30;;
51925;SDS011;37952;51.938;15.480;2023-07-13T02:16:52;2.10;;;1.50;;
51925;SDS011;37952;51.938;15.480;2023-07-13T02:19:55;4.40;;;1.50;;
51925;SDS011;37952;51.938;15.480;2023-07-13T02:22:58;1.50;;;1.40;;
51925;SDS011;37952;51.938;15.480;2023-07-13T02:26:01;1.90;;;1.50;;
51925;SDS011;37952;51.938;15.480;2023-07-13T02:29:06;3.20;;;1.50;;
51925;SDS011;37952;51.938;15.480;2023-07-13T02:32:09;2.10;;;1.90;;
51925;SDS011;37952;51.938;15.480;2023-07-13T02:35:12;1.70;;;1.60;;
51925;SDS011;37952;51.938;15.480;2023-07-13T02:38:16;3.10;;;1.60;;
51925;SDS011;37952;51.938;15.480;2023-07-13T02:41:18;1.40;;;1.30;;
51925;SDS011;37952;51.938;15.480;2023-07-13T02:44:21;1.80;;;1.40;;
51925;SDS011;37952;51.938;15.480;2023-07-13T02:47:24;1.60;;;1.50;;
51925;SDS011;37952;51.938;15.480;2023-07-13T02:50:27;1.70;;;1.60;;
51925;SDS011;37952;51.938;15.480;2023-07-13T02:53:30;2.10;;;1.50;;
51925;SDS011;37952;51.938;15.480;2023-07-13T02:56:32;3.20;;;1.50;;
51925;SDS011;37952;51.938;15.480;2023-07-13T02:59:36;1.60;;;1.40;;
51925;SDS011;37952;51.938;15.480;2023-07-13T03:02:39;2.70;;;1.40;;
51925;SDS011;37952;51.938;15.480;2023-07-13T03:05:43;1.70;;;1.20;;
51925;SDS011;37952;51.938;15.480;2023-07-13T03:08:47;1.80;;;1.60;;
51925;SDS011;37952;51.938;15.480;2023-07-13T03:11:54;1.80;;;1.40;;
51925;SDS011;37952;51.938;15.480;2023-07-13T03:14:58;1.70;;;1.60;;
51925;SDS011;37952;51.938;15.480;2023-07-13T03:18:00;3.80;;;1.40;;
51925;SDS011;37952;51.938;15.480;2023-07-13T03:21:04;3.40;;;1.30;;
51925;SDS011;37952;51.938;15.480;2023-07-13T03:24:07;1.60;;;1.40;;
51925;SDS011;37952;51.938;15.480;2023-07-13T03:27:10;5.10;;;1.90;;
51925;SDS011;37952;51.938;15.480;2023-07-13T03:30:13;2.20;;;1.50;;
51925;SDS011;37952;51.938;15.480;2023-07-13T03:33:16;2.90;;;1.50;;
51925;SDS011;37952;51.938;15.480;2023-07-13T03:36:20;1.60;;;1.50;;
51925;SDS011;37952;51.938;15.480;2023-07-13T03:39:25;1.50;;;1.30;;
51925;SDS011;37952;51.938;15.480;2023-07-13T03:42:27;1.80;;;1.70;;
51925;SDS011;37952;51.938;15.480;2023-07-13T03:45:30;1.70;;;1.40;;
51925;SDS011;37952;51.938;15.480;2023-07-13T03:48:33;1.30;;;1.20;;
51925;SDS011;37952;51.938;15.480;2023-07-13T03:51:36;1.80;;;1.30;;
51925;SDS011;37952;51.938;15.480;2023-07-13T03:54:39;1.30;;;1.20;;
51925;SDS011;37952;51.938;15.480;2023-07-13T03:57:42;5.90;;;1.10;;
51925;SDS011;37952;51.938;15.480;2023-07-13T04:00:44;5.00;;;1.40;;
51925;SDS011;37952;51.938;15.480;2023-07-13T04:03:47;1.70;;;1.50;;
51925;SDS011;37952;51.938;15.480;2023-07-13T04:06:51;3.20;;;1.40;;
51925;SDS011;37952;51.938;15.480;2023-07-13T04:09:55;1.30;;;1.20;;
51925;SDS011;37952;51.938;15.480;2023-07-13T04:12:58;1.80;;;1.60;;
51925;SDS011;37952;51.938;15.480;2023-07-13T04:16:01;1.80;;;1.20;;
51925;SDS011;37952;51.938;15.480;2023-07-13T04:19:04;1.60;;;1.50;;
51925;SDS011;37952;51.938;15.480;2023-07-13T04:22:07;1.60;;;1.40;;
51925;SDS011;37952;51.938;15.480;2023-07-13T04:25:10;1.40;;;1.30;;
51925;SDS011;37952;51.938;15.480;2023-07-13T04:28:12;4.00;;;1.90;;
51925;SDS011;37952;51.938;15.480;2023-07-13T04:31:15;2.60;;;1.40;;
51925;SDS011;37952;51.938;15.480;2023-07-13T04:34:19;1.60;;;1.50;;
51925;SDS011;37952;51.938;15.480;2023-07-13T04:37:22;1.90;;;1.60;;
51925;SDS011;37952;51.938;15.480;2023-07-13T04:40:25;1.50;;;1.40;;
51925;SDS011;37952;51.938;15.480;2023-07-13T04:43:29;3.60;;;1.30;;
51925;SDS011;37952;51.938;15.480;2023-07-13T04:46:32;1.70;;;1.60;;
51925;SDS011;37952;51.938;15.480;2023-07-13T04:49:35;1.50;;;1.40;;
51925;SDS011;37952;51.938;15.480;2023-07-13T04:52:38;1.40;;;1.30;;
51925;SDS011;37952;51.938;15.480;2023-07-13T04:55:41;1.40;;;1.30;;
51925;SDS011;37952;51.938;15.480;2023-07-13T04:58:44;2.00;;;1.70;;
51925;SDS011;37952;51.938;15.480;2023-07-13T05:01:46;4.10;;;1.70;;
51925;SDS011;37952;51.938;15.480;2023-07-13T05:04:49;3.10;;;1.30;;
51925;SDS011;37952;51.938;15.480;2023-07-13T05:07:53;1.40;;;1.30;;
51925;SDS011;37952;51.938;15.480;2023-07-13T05:10:56;1.70;;;1.60;;
51925;SDS011;37952;51.938;15.480;2023-07-13T05:13:59;3.10;;;2.00;;
51925;SDS011;37952;51.938;15.480;2023-07-13T05:17:03;2.30;;;1.60;;
51925;SDS011;37952;51.938;15.480;2023-07-13T05:20:07;1.50;;;1.40;;
51925;SDS011;37952;51.938;15.480;2023-07-13T05:23:11;2.20;;;2.00;;
51925;SDS011;37952;51.938;15.480;2023-07-13T05:26:14;3.70;;;1.70;;
51925;SDS011;37952;51.938;15.480;2023-07-13T05:29:17;1.90;;;1.80;;
51925;SDS011;37952;51.938;15.480;2023-07-13T05:32:19;2.10;;;1.70;;
51925;SDS011;37952;51.938;15.480;2023-07-13T05:35:22;3.50;;;2.00;;
51925;SDS011;37952;51.938;15.480;2023-07-13T05:38:25;1.80;;;1.70;;
51925;SDS011;37952;51.938;15.480;2023-07-13T05:41:28;6.00;;;1.70;;
51925;SDS011;37952;51.938;15.480;2023-07-13T05:44:31;1.80;;;1.60;;
51925;SDS011;37952;51.938;15.480;2023-07-13T05:47:34;3.20;;;2.50;;
51925;SDS011;37952;51.938;15.480;2023-07-13T05:50:38;2.10;;;1.90;;
51925;SDS011;37952;51.938;15.480;2023-07-13T05:53:40;3.20;;;2.30;;
51925;SDS011;37952;51.938;15.480;2023-07-13T05:56:43;2.20;;;2.00;;
51925;SDS011;37952;51.938;15.480;2023-07-13T05:59:46;2.20;;;2.00;;
51925;SDS011;37952;51.938;15.480;2023-07-13T06:02:49;1.80;;;1.50;;
51925;SDS011;37952;51.938;15.480;2023-07-13T06:05:52;1.70;;;1.50;;
51925;SDS011;37952;51.938;15.480;2023-07-13T06:08:55;1.80;;;1.70;;
51925;SDS011;37952;51.938;15.480;2023-07-13T06:11:57;2.40;;;1.80;;
51925;SDS011;37952;51.938;15.480;2023-07-13T06:15:00;2.50;;;1.80;;
51925;SDS011;37952;51.938;15.480;2023-07-13T06:18:03;2.80;;;1.80;;
51925;SDS011;37952;51.938;15.480;2023-07-13T06:21:10;3.20;;;1.70;;
51925;SDS011;37952;51.938;15.480;2023-07-13T06:24:18;1.90;;;1.80;;
51925;SDS011;37952;51.938;15.480;2023-07-13T06:27:20;1.70;;;1.50;;
51925;SDS011;37952;51.938;15.480;2023-07-13T06:30:23;3.10;;;1.60;;
51925;SDS011;37952;51.938;15.480;2023-07-13T06:33:26;2.00;;;1.80;;
51925;SDS011;37952;51.938;15.480;2023-07-13T06:36:29;5.40;;;1.90;;
51925;SDS011;37952;51.938;15.480;2023-07-13T06:39:32;3.10;;;1.60;;
51925;SDS011;37952;51.938;15.480;2023-07-13T06:42:35;2.20;;;2.10;;
51925;SDS011;37952;51.938;15.480;2023-07-13T06:45:42;2.50;;;1.60;;
51925;SDS011;37952;51.938;15.480;2023-07-13T06:48:52;1.80;;;1.70;;
51925;SDS011;37952;51.938;15.480;2023-07-13T06:51:55;1.80;;;1.70;;
51925;SDS011;37952;51.938;15.480;2023-07-13T06:54:57;1.60;;;1.40;;
51925;SDS011;37952;51.938;15.480;2023-07-13T06:58:00;1.90;;;1.50;;
51925;SDS011;37952;51.938;15.480;2023-07-13T07:01:03;2.10;;;1.80;;
51925;SDS011;37952;51.938;15.480;2023-07-13T07:04:09;1.90;;;1.80;;
51925;SDS011;37952;51.938;15.480;2023-07-13T07:07:12;1.50;;;1.40;;
51925;SDS011;37952;51.938;15.480;2023-07-13T07:10:15;1.60;;;1.40;;
51925;SDS011;37952;51.938;15.480;2023-07-13T07:13:18;2.40;;;1.50;;
51925;SDS011;37952;51.938;15.480;2023-07-13T07:16:21;4.00;;;1.70;;
51925;SDS011;37952;51.938;15.480;2023-07-13T07:19:24;1.60;;;1.50;;
51925;SDS011;37952;51.938;15.480;2023-07-13T07:22:27;1.80;;;1.60;;
51925;SDS011;37952;51.938;15.480;2023-07-13T07:25:30;1.30;;;1.20;;
51925;SDS011;37952;51.938;15.480;2023-07-13T07:28:35;1.30;;;1.20;;
51925;SDS011;37952;51.938;15.480;2023-07-13T07:31:40;1.40;;;1.30;;
51925;SDS011;37952;51.938;15.480;2023-07-13T07:34:46;2.50;;;1.30;;
51925;SDS011;37952;51.938;15.480;2023-07-13T07:37:49;1.80;;;1.00;;
51925;SDS011;37952;51.938;15.480;2023-07-13T07:40:52;1.10;;;1.00;;
51925;SDS011;37952;51.938;15.480;2023-07-13T07:43:58;1.00;;;0.90;;
51925;SDS011;37952;51.938;15.480;2023-07-13T07:47:01;1.20;;;1.00;;
51925;SDS011;37952;51.938;15.480;2023-07-13T07:50:05;3.10;;;1.10;;
51925;SDS011;37952;51.938;15.480;2023-07-13T07:53:08;1.20;;;1.10;;
51925;SDS011;37952;51.938;15.480;2023-07-13T07:56:13;1.90;;;1.20;;
51925;SDS011;37952;51.938;15.480;2023-07-13T07:59:19;2.10;;;0.90;;
51925;SDS011;37952;51.938;15.480;2023-07-13T08:02:25;2.80;;;0.70;;
51925;SDS011;37952;51.938;15.480;2023-07-13T08:05:31;0.90;;;0.60;;
51925;SDS011;37952;51.938;15.480;2023-07-13T08:08:37;1.30;;;1.00;;
51925;SDS011;37952;51.938;15.480;2023-07-13T08:11:39;1.20;;;0.90;;
51925;SDS011;37952;51.938;15.480;2023-07-13T08:14:45;1.80;;;0.80;;
51925;SDS011;37952;51.938;15.480;2023-07-13T08:17:56;3.20;;;0.90;;
51925;SDS011;37952;51.938;15.480;2023-07-13T08:21:02;2.10;;;0.90;;
51925;SDS011;37952;51.938;15.480;2023-07-13T08:24:06;1.40;;;0.80;;
51925;SDS011;37952;51.938;15.480;2023-07-13T08:27:12;3.20;;;1.00;;
51925;SDS011;37952;51.938;15.480;2023-07-13T08:30:15;1.50;;;0.90;;
51925;SDS011;37952;51.938;15.480;2023-07-13T08:33:19;1.30;;;0.80;;
51925;SDS011;37952;51.938;15.480;2023-07-13T08:36:25;1.10;;;0.70;;
51925;SDS011;37952;51.938;15.480;2023-07-13T08:39:29;1.00;;;0.90;;
51925;SDS011;37952;51.938;15.480;2023-07-13T08:42:37;1.10;;;0.90;;
51925;SDS011;37952;51.938;15.480;2023-07-13T08:45:49;2.10;;;1.00;;
51925;SDS011;37952;51.938;15.480;2023-07-13T08:48:57;1.10;;;0.90;;
51925;SDS011;37952;51.938;15.480;2023-07-13T08:52:05;4.40;;;0.80;;
51925;SDS011;37952;51.938;15.480;2023-07-13T08:55:17;3.10;;;0.70;;
51925;SDS011;37952;51.938;15.480;2023-07-13T08:58:23;1.00;;;0.90;;
51925;SDS011;37952;51.938;15.480;2023-07-13T09:01:38;1.50;;;1.00;;
51925;SDS011;37952;51.938;15.480;2023-07-13T09:11:56;1.60;;;1.10;;
51925;SDS011;37952;51.938;15.480;2023-07-13T09:15:17;1.50;;;1.20;;
51925;SDS011;37952;51.938;15.480;2023-07-13T09:18:30;2.10;;;1.00;;
51925;SDS011;37952;51.938;15.480;2023-07-13T09:21:41;4.60;;;1.10;;
51925;SDS011;37952;51.938;15.480;2023-07-13T09:28:24;0.90;;;0.70;;
51925;SDS011;37952;51.938;15.480;2023-07-13T09:31:34;1.90;;;1.00;;
51925;SDS011;37952;51.938;15.480;2023-07-13T09:34:41;2.50;;;1.20;;
51925;SDS011;37952;51.938;15.480;2023-07-13T09:37:44;1.40;;;1.30;;
51925;SDS011;37952;51.938;15.480;2023-07-13T09:40:55;3.60;;;1.10;;
51925;SDS011;37952;51.938;15.480;2023-07-13T09:47:31;6.60;;;1.00;;
51925;SDS011;37952;51.938;15.480;2023-07-13T09:50:41;1.80;;;1.40;;
51925;SDS011;37952;51.938;15.480;2023-07-13T09:53:45;6.90;;;1.10;;
51925;SDS011;37952;51.938;15.480;2023-07-13T09:56:48;6.00;;;1.10;;
51925;SDS011;37952;51.938;15.480;2023-07-13T09:59:57;1.80;;;1.20;;
51925;SDS011;37952;51.938;15.480;2023-07-13T10:03:06;1.50;;;1.10;;
51925;SDS011;37952;51.938;15.480;2023-07-13T10:06:21;2.90;;;1.10;;
51925;SDS011;37952;51.938;15.480;2023-07-13T10:09:24;0.90;;;0.90;;
51925;SDS011;37952;51.938;15.480;2023-07-13T10:12:28;1.30;;;0.80;;
51925;SDS011;37952;51.938;15.480;2023-07-13T10:15:32;1.80;;;1.20;;
51925;SDS011;37952;51.938;15.480;2023-07-13T10:18:40;1.00;;;0.90;;
51925;SDS011;37952;51.938;15.480;2023-07-13T10:21:47;2.70;;;0.80;;
51925;SDS011;37952;51.938;15.480;2023-07-13T10:25:02;1.00;;;1.00;;
51925;SDS011;37952;51.938;15.480;2023-07-13T10:28:25;1.60;;;0.80;;
51925;SDS011;37952;51.938;15.480;2023-07-13T10:31:40;1.10;;;0.80;;
51925;SDS011;37952;51.938;15.480;2023-07-13T10:34:45;1.00;;;0.70;;
51925;SDS011;37952;51.938;15.480;2023-07-13T10:41:15;0.80;;;0.60;;
51925;SDS011;37952;51.938;15.480;2023-07-13T10:44:23;3.80;;;0.80;;
51925;SDS011;37952;51.938;15.480;2023-07-13T10:47:30;2.40;;;0.80;;
51925;SDS011;37952;51.938;15.480;2023-07-13T10:50:34;0.80;;;0.70;;
51925;SDS011;37952;51.938;15.480;2023-07-13T10:53:42;1.60;;;1.00;;
51925;SDS011;37952;51.938;15.480;2023-07-13T10:56:46;0.90;;;0.70;;
51925;SDS011;37952;51.938;15.480;2023-07-13T11:03:10;1.00;;;0.80;;
51925;SDS011;37952;51.938;15.480;2023-07-13T11:09:37;1.20;;;0.80;;
51925;SDS011;37952;51.938;15.480;2023-07-13T11:12:49;3.80;;;0.80;;
51925;SDS011;37952;51.938;15.480;2023-07-13T11:15:54;3.10;;;0.90;;
51925;SDS011;37952;51.938;15.480;2023-07-13T11:28:30;0.90;;;0.60;;
51925;SDS011;37952;51.938;15.480;2023-07-13T11:31:34;3.50;;;1.10;;
51925;SDS011;37952;51.938;15.480;2023-07-13T11:34:38;1.40;;;0.80;;
51925;SDS011;37952;51.938;15.480;2023-07-13T11:37:41;2.40;;;0.80;;
51925;SDS011;37952;51.938;15.480;2023-07-13T11:40:45;3.10;;;0.90;;
51925;SDS011;37952;51.938;15.480;2023-07-13T11:44:15;0.60;;;0.60;;
51925;SDS011;37952;51.938;15.480;2023-07-13T11:47:21;1.50;;;0.90;;
51925;SDS011;37952;51.938;15.480;2023-07-13T11:50:25;4.40;;;0.80;;
51925;SDS011;37952;51.938;15.480;2023-07-13T11:53:28;0.70;;;0.70;;
51925;SDS011;37952;51.938;15.480;2023-07-13T11:56:35;1.20;;;0.80;;
51925;SDS011;37952;51.938;15.480;2023-07-13T11:59:39;2.90;;;0.80;;
51925;SDS011;37952;51.938;15.480;2023-07-13T12:02:44;0.90;;;0.70;;
51925;SDS011;37952;51.938;15.480;2023-07-13T12:05:58;3.60;;;0.60;;
51925;SDS011;37952;51.938;15.480;2023-07-13T12:09:10;1.00;;;0.70;;
51925;SDS011;37952;51.938;15.480;2023-07-13T12:12:18;4.70;;;0.90;;
51925;SDS011;37952;51.938;15.480;2023-07-13T12:15:22;1.20;;;0.80;;
51925;SDS011;37952;51.938;15.480;2023-07-13T12:18:28;1.30;;;0.90;;
51925;SDS011;37952;51.938;15.480;2023-07-13T12:21:34;1.50;;;0.90;;
51925;SDS011;37952;51.938;15.480;2023-07-13T12:24:40;2.50;;;0.80;;
51925;SDS011;37952;51.938;15.480;2023-07-13T12:27:47;2.00;;;0.90;;
51925;SDS011;37952;51.938;15.480;2023-07-13T12:30:52;4.80;;;0.80;;
51925;SDS011;37952;51.938;15.480;2023-07-13T12:34:02;0.80;;;0.70;;
51925;SDS011;37952;51.938;15.480;2023-07-13T12:37:10;0.90;;;0.80;;
51925;SDS011;37952;51.938;15.480;2023-07-13T12:40:15;1.20;;;0.70;;
51925;SDS011;37952;51.938;15.480;2023-07-13T12:43:21;0.90;;;0.80;;
51925;SDS011;37952;51.938;15.480;2023-07-13T12:46:25;0.80;;;0.60;;
51925;SDS011;37952;51.938;15.480;2023-07-13T12:49:32;1.10;;;0.60;;
51925;SDS011;37952;51.938;15.480;2023-07-13T12:52:39;0.90;;;0.80;;
51925;SDS011;37952;51.938;15.480;2023-07-13T12:55:47;1.20;;;0.90;;
51925;SDS011;37952;51.938;15.480;2023-07-13T12:58:57;1.00;;;0.70;;
51925;SDS011;37952;51.938;15.480;2023-07-13T13:02:02;1.30;;;0.90;;
51925;SDS011;37952;51.938;15.480;2023-07-13T13:05:07;0.80;;;0.70;;
51925;SDS011;37952;51.938;15.480;2023-07-13T13:08:16;1.80;;;0.70;;
51925;SDS011;37952;51.938;15.480;2023-07-13T13:11:20;1.10;;;1.00;;
51925;SDS011;37952;51.938;15.480;2023-07-13T13:14:31;1.10;;;0.80;;
51925;SDS011;37952;51.938;15.480;2023-07-13T13:17:35;2.40;;;0.70;;
51925;SDS011;37952;51.938;15.480;2023-07-13T13:20:38;3.30;;;1.20;;
51925;SDS011;37952;51.938;15.480;2023-07-13T13:23:41;1.20;;;0.70;;
51925;SDS011;37952;51.938;15.480;2023-07-13T13:26:44;1.10;;;0.90;;
51925;SDS011;37952;51.938;15.480;2023-07-13T13:29:48;1.10;;;0.80;;
51925;SDS011;37952;51.938;15.480;2023-07-13T13:32:54;1.10;;;0.80;;
51925;SDS011;37952;51.938;15.480;2023-07-13T13:35:57;2.90;;;0.80;;
51925;SDS011;37952;51.938;15.480;2023-07-13T13:38:59;1.80;;;0.80;;
51925;SDS011;37952;51.938;15.480;2023-07-13T13:42:04;3.00;;;0.90;;
51925;SDS011;37952;51.938;15.480;2023-07-13T13:45:11;2.10;;;1.00;;
51925;SDS011;37952;51.938;15.480;2023-07-13T13:48:26;4.40;;;0.80;;
51925;SDS011;37952;51.938;15.480;2023-07-13T13:51:36;0.70;;;0.60;;
51925;SDS011;37952;51.938;15.480;2023-07-13T13:54:38;0.40;;;0.40;;
51925;SDS011;37952;51.938;15.480;2023-07-13T13:57:43;2.50;;;0.70;;
51925;SDS011;37952;51.938;15.480;2023-07-13T14:00:47;1.30;;;0.90;;
51925;SDS011;37952;51.938;15.480;2023-07-13T14:03:52;0.90;;;0.80;;
51925;SDS011;37952;51.938;15.480;2023-07-13T14:06:54;1.20;;;0.70;;
51925;SDS011;37952;51.938;15.480;2023-07-13T14:09:58;1.00;;;0.80;;
51925;SDS011;37952;51.938;15.480;2023-07-13T14:13:02;3.70;;;1.10;;
51925;SDS011;37952;51.938;15.480;2023-07-13T14:16:17;2.40;;;0.80;;
51925;SDS011;37952;51.938;15.480;2023-07-13T14:19:22;0.90;;;0.80;;
51925;SDS011;37952;51.938;15.480;2023-07-13T14:22:26;0.70;;;0.70;;
51925;SDS011;37952;51.938;15.480;2023-07-13T14:25:29;4.40;;;1.00;;
51925;SDS011;37952;51.938;15.480;2023-07-13T14:28:32;2.80;;;0.80;;
51925;SDS011;37952;51.938;15.480;2023-07-13T14:31:35;1.20;;;0.50;;
51925;SDS011;37952;51.938;15.480;2023-07-13T14:34:39;0.70;;;0.70;;
51925;SDS011;37952;51.938;15.480;2023-07-13T14:37:44;0.70;;;0.70;;
51925;SDS011;37952;51.938;15.480;2023-07-13T14:40:49;1.40;;;0.90;;
51925;SDS011;37952;51.938;15.480;2023-07-13T14:43:52;1.60;;;0.60;;
51925;SDS011;37952;51.938;15.480;2023-07-13T14:46:57;0.90;;;0.80;;
51925;SDS011;37952;51.938;15.480;2023-07-13T14:50:01;1.30;;;0.90;;
51925;SDS011;37952;51.938;15.480;2023-07-13T14:53:09;1.10;;;0.80;;
51925;SDS011;37952;51.938;15.480;2023-07-13T14:56:13;0.80;;;0.60;;
51925;SDS011;37952;51.938;15.480;2023-07-13T14:59:17;1.60;;;1.10;;
51925;SDS011;37952;51.938;15.480;2023-07-13T15:05:34;1.10;;;0.70;;
51925;SDS011;37952;51.938;15.480;2023-07-13T15:08:37;1.00;;;0.90;;
51925;SDS011;37952;51.938;15.480;2023-07-13T15:11:40;0.70;;;0.60;;
51925;SDS011;37952;51.938;15.480;2023-07-13T15:14:44;5.10;;;1.30;;
51925;SDS011;37952;51.938;15.480;2023-07-13T15:17:47;3.70;;;0.90;;
51925;SDS011;37952;51.938;15.480;2023-07-13T15:20:51;0.80;;;0.60;;
51925;SDS011;37952;51.938;15.480;2023-07-13T15:23:58;0.90;;;0.80;;
51925;SDS011;37952;51.938;15.480;2023-07-13T15:27:01;4.30;;;0.80;;
51925;SDS011;37952;51.938;15.480;2023-07-13T15:30:04;2.50;;;0.70;;
51925;SDS011;37952;51.938;15.480;2023-07-13T15:33:11;1.60;;;0.90;;
51925;SDS011;37952;51.938;15.480;2023-07-13T15:36:17;0.60;;;0.60;;
51925;SDS011;37952;51.938;15.480;2023-07-13T15:39:21;1.10;;;0.80;;
51925;SDS011;37952;51.938;15.480;2023-07-13T15:42:24;2.30;;;0.70;;
51925;SDS011;37952;51.938;15.480;2023-07-13T15:45:27;1.40;;;0.50;;
51925;SDS011;37952;51.938;15.480;2023-07-13T15:48:30;1.70;;;0.70;;
51925;SDS011;37952;51.938;15.480;2023-07-13T15:51:33;3.20;;;0.60;;
51925;SDS011;37952;51.938;15.480;2023-07-13T15:54:37;4.00;;;0.70;;
51925;SDS011;37952;51.938;15.480;2023-07-13T15:57:41;1.20;;;0.60;;
51925;SDS011;37952;51.938;15.480;2023-07-13T16:00:48;0.80;;;0.70;;
51925;SDS011;37952;51.938;15.480;2023-07-13T16:03:55;1.30;;;1.00;;
51925;SDS011;37952;51.938;15.480;2023-07-13T16:06:59;4.60;;;0.70;;
51925;SDS011;37952;51.938;15.480;2023-07-13T16:10:01;1.40;;;1.00;;
51925;SDS011;37952;51.938;15.480;2023-07-13T16:13:05;0.80;;;0.60;;
51925;SDS011;37952;51.938;15.480;2023-07-13T16:16:16;1.00;;;0.80;;
51925;SDS011;37952;51.938;15.480;2023-07-13T16:19:19;2.50;;;0.80;;
51925;SDS011;37952;51.938;15.480;2023-07-13T16:22:32;2.40;;;0.60;;
51925;SDS011;37952;51.938;15.480;2023-07-13T16:25:35;1.00;;;0.60;;
51925;SDS011;37952;51.938;15.480;2023-07-13T16:28:38;0.70;;;0.70;;
51925;SDS011;37952;51.938;15.480;2023-07-13T16:31:42;0.80;;;0.80;;
51925;SDS011;37952;51.938;15.480;2023-07-13T16:34:56;0.60;;;0.60;;
51925;SDS011;37952;51.938;15.480;2023-07-13T16:37:59;1.30;;;0.90;;
51925;SDS011;37952;51.938;15.480;2023-07-13T16:41:05;1.20;;;0.90;;
51925;SDS011;37952;51.938;15.480;2023-07-13T16:44:14;1.10;;;1.00;;
51925;SDS011;37952;51.938;15.480;2023-07-13T16:47:21;2.00;;;0.90;;
51925;SDS011;37952;51.938;15.480;2023-07-13T16:50:30;4.80;;;1.00;;
51925;SDS011;37952;51.938;15.480;2023-07-13T16:53:36;1.20;;;0.80;;
51925;SDS011;37952;51.938;15.480;2023-07-13T16:56:39;1.90;;;0.80;;
51925;SDS011;37952;51.938;15.480;2023-07-13T16:59:42;4.40;;;0.80;;
51925;SDS011;37952;51.938;15.480;2023-07-13T17:02:45;1.00;;;0.70;;
51925;SDS011;37952;51.938;15.480;2023-07-13T17:05:49;1.20;;;0.80;;
51925;SDS011;37952;51.938;15.480;2023-07-13T17:08:53;1.00;;;0.80;;
51925;SDS011;37952;51.938;15.480;2023-07-13T17:11:58;1.00;;;0.80;;
51925;SDS011;37952;51.938;15.480;2023-07-13T17:15:01;1.00;;;0.80;;
51925;SDS011;37952;51.938;15.480;2023-07-13T17:18:04;1.90;;;1.00;;
51925;SDS011;37952;51.938;15.480;2023-07-13T17:21:15;1.30;;;0.80;;
51925;SDS011;37952;51.938;15.480;2023-07-13T17:24:19;1.40;;;0.90;;
51925;SDS011;37952;51.938;15.480;2023-07-13T17:27:29;1.10;;;0.50;;
51925;SDS011;37952;51.938;15.480;2023-07-13T17:30:35;0.70;;;0.70;;
51925;SDS011;37952;51.938;15.480;2023-07-13T17:33:39;0.90;;;0.70;;
51925;SDS011;37952;51.938;15.480;2023-07-13T17:36:50;1.50;;;0.70;;
51925;SDS011;37952;51.938;15.480;2023-07-13T17:39:52;1.30;;;0.90;;
51925;SDS011;37952;51.938;15.480;2023-07-13T17:42:55;0.70;;;0.70;;
51925;SDS011;37952;51.938;15.480;2023-07-13T17:45:59;1.20;;;0.70;;
51925;SDS011;37952;51.938;15.480;2023-07-13T17:49:03;6.10;;;0.80;;
51925;SDS011;37952;51.938;15.480;2023-07-13T17:52:08;0.90;;;0.80;;
51925;SDS011;37952;51.938;15.480;2023-07-13T17:55:12;1.30;;;0.80;;
51925;SDS011;37952;51.938;15.480;2023-07-13T17:58:16;1.50;;;0.70;;
51925;SDS011;37952;51.938;15.480;2023-07-13T18:01:20;1.40;;;0.60;;
51925;SDS011;37952;51.938;15.480;2023-07-13T18:04:25;1.40;;;0.80;;
51925;SDS011;37952;51.938;15.480;2023-07-13T18:07:28;1.40;;;0.70;;
51925;SDS011;37952;51.938;15.480;2023-07-13T18:10:31;1.00;;;0.90;;
51925;SDS011;37952;51.938;15.480;2023-07-13T18:13:35;1.30;;;0.60;;
51925;SDS011;37952;51.938;15.480;2023-07-13T18:16:45;2.40;;;0.80;;
51925;SDS011;37952;51.938;15.480;2023-07-13T18:19:53;4.60;;;0.60;;
51925;SDS011;37952;51.938;15.480;2023-07-13T18:22:57;3.20;;;0.80;;
51925;SDS011;37952;51.938;15.480;2023-07-13T18:26:01;0.80;;;0.70;;
51925;SDS011;37952;51.938;15.480;2023-07-13T18:29:04;2.50;;;0.80;;
51925;SDS011;37952;51.938;15.480;2023-07-13T18:32:09;0.90;;;0.80;;
51925;SDS011;37952;51.938;15.480;2023-07-13T18:35:21;2.30;;;0.70;;
51925;SDS011;37952;51.938;15.480;2023-07-13T18:38:29;3.30;;;0.70;;
51925;SDS011;37952;51.938;15.480;2023-07-13T18:41:34;0.90;;;0.80;;
51925;SDS011;37952;51.938;15.480;2023-07-13T18:44:41;4.00;;;0.90;;
51925;SDS011;37952;51.938;15.480;2023-07-13T18:47:45;1.30;;;0.80;;
51925;SDS011;37952;51.938;15.480;2023-07-13T18:50:50;1.00;;;0.70;;
51925;SDS011;37952;51.938;15.480;2023-07-13T18:53:54;1.80;;;0.80;;